Аэропорт: Казань. Казань

ICAO: UWKD

METAR:
2019/03/26 13:00
UWKD 261300Z 15003MPS CAVOK 02/M03 Q1010 R11/810050 NOSIG RMK QFE748/0997
METAR:
2019/03/26 12:21
TAF UWKD 261058Z 2612/2712 18006G12MPS 9999 BKN020 TX03/2612Z TN00/2703Z 
     FM261500 16006G12MPS 3100 -SNRA BR OVC011 
      TEMPO 2615/2624 18009G15MPS 0700 +SNRA OVC003 
      TEMPO 2700/2706 21005G10MPS 1000 BR BKN004